TAI425 KIAH-MSLP
Flight info
| Callsign | TAI425 |
|---|---|
| Flight time | 2h 29m |
| Altitude | 39000 |
| Route | FLYZA5 MUSYL L207 IPSEV DCT VIKMO DCT MUVAP DCT MORAM MORAM2M |
| Aircraft | A20N/M-SDE2E3FGHIRWXY/LB1 |
Departure
| Time | 2026-04-23 23:05 |
|---|---|
| Airport | George Bush Intercontinental Airport (KIAH) |
Arrival
| Time | 2026-04-24 01:35 |
|---|---|
| Airport | El Salvador International Airport Saint Óscar Arnulfo Romero y Galdámez (MSLP) |
| Time | Latitude | Longitude | Altitude | Speed | Heading |
|---|---|---|---|---|---|
| 2026-04-23 22:33 | 29.98480 | -95.33166 | 97 ft | 0 kts | 297° |
| 2026-04-23 22:50 | 29.98475 | -95.33154 | 97 ft | 2 kts | 297° |
| 2026-04-23 22:50 | 29.98468 | -95.33139 | 97 ft | 2 kts | 297° |
| 2026-04-23 22:50 | 29.98461 | -95.33124 | 97 ft | 2 kts | 297° |
| 2026-04-23 22:50 | 29.98454 | -95.33109 | 97 ft | 2 kts | 297° |
| 2026-04-23 22:51 | 29.98447 | -95.33093 | 97 ft | 2 kts | 297° |
| 2026-04-23 22:51 | 29.98440 | -95.33077 | 97 ft | 2 kts | 297° |
| 2026-04-23 22:51 | 29.98434 | -95.33064 | 97 ft | 0 kts | 297° |
| 2026-04-23 22:51 | 29.98430 | -95.33052 | 97 ft | 2 kts | 268° |
| 2026-04-23 22:52 | 29.98434 | -95.33035 | 97 ft | 2 kts | 230° |
| 2026-04-23 22:52 | 29.98447 | -95.33026 | 97 ft | 2 kts | 190° |
| 2026-04-23 22:52 | 29.98454 | -95.33025 | 97 ft | 1 kts | 173° |
| 2026-04-23 22:52 | 29.98458 | -95.33026 | 97 ft | 0 kts | 178° |
| 2026-04-23 22:54 | 29.98453 | -95.33026 | 97 ft | 2 kts | 178° |
| 2026-04-23 22:54 | 29.98419 | -95.33026 | 97 ft | 7 kts | 183° |
| 2026-04-23 22:55 | 29.98362 | -95.33028 | 97 ft | 9 kts | 181° |
| 2026-04-23 22:55 | 29.98302 | -95.33079 | 97 ft | 14 kts | 269° |
| 2026-04-23 22:55 | 29.98302 | -95.33212 | 97 ft | 19 kts | 268° |
| 2026-04-23 22:55 | 29.98300 | -95.33366 | 98 ft | 18 kts | 268° |
| 2026-04-23 22:56 | 29.98300 | -95.33514 | 100 ft | 18 kts | 270° |
| 2026-04-23 22:56 | 29.98312 | -95.33666 | 100 ft | 19 kts | 278° |
| 2026-04-23 22:56 | 29.98317 | -95.33818 | 100 ft | 19 kts | 269° |
| 2026-04-23 22:56 | 29.98321 | -95.33970 | 100 ft | 19 kts | 281° |
| 2026-04-23 22:57 | 29.98374 | -95.34109 | 100 ft | 19 kts | 281° |
| 2026-04-23 22:57 | 29.98377 | -95.34267 | 100 ft | 20 kts | 270° |
| 2026-04-23 22:57 | 29.98369 | -95.34422 | 100 ft | 18 kts | 248° |
| 2026-04-23 22:57 | 29.98324 | -95.34552 | 99 ft | 18 kts | 271° |
| 2026-04-23 22:58 | 29.98325 | -95.34711 | 97 ft | 20 kts | 269° |
| 2026-04-23 22:58 | 29.98325 | -95.34872 | 97 ft | 20 kts | 269° |
| 2026-04-23 22:58 | 29.98325 | -95.35020 | 97 ft | 12 kts | 269° |
| 2026-04-23 22:58 | 29.98325 | -95.35078 | 97 ft | 2 kts | 269° |
| 2026-04-23 22:59 | 29.98325 | -95.35079 | 97 ft | 0 kts | 269° |
| 2026-04-23 22:59 | 29.98325 | -95.35080 | 97 ft | 0 kts | 269° |
| 2026-04-23 22:59 | 29.98325 | -95.35086 | 97 ft | 2 kts | 269° |
| 2026-04-23 23:00 | 29.98328 | -95.35146 | 97 ft | 12 kts | 289° |
| 2026-04-23 23:00 | 29.98416 | -95.35223 | 97 ft | 17 kts | 332° |
| 2026-04-23 23:00 | 29.98524 | -95.35290 | 97 ft | 17 kts | 332° |
| 2026-04-23 23:00 | 29.98635 | -95.35358 | 97 ft | 17 kts | 331° |
| 2026-04-23 23:01 | 29.98747 | -95.35426 | 97 ft | 18 kts | 332° |
| 2026-04-23 23:01 | 29.98853 | -95.35491 | 97 ft | 14 kts | 332° |
| 2026-04-23 23:01 | 29.98870 | -95.35590 | 97 ft | 14 kts | 243° |
| 2026-04-23 23:01 | 29.98828 | -95.35680 | 97 ft | 6 kts | 242° |
| 2026-04-23 23:02 | 29.98823 | -95.35690 | 97 ft | 0 kts | 242° |
| 2026-04-23 23:03 | 29.98821 | -95.35696 | 97 ft | 2 kts | 242° |
| 2026-04-23 23:04 | 29.98795 | -95.35744 | 97 ft | 11 kts | 229° |
| 2026-04-23 23:04 | 29.98742 | -95.35760 | 97 ft | 2 kts | 153° |
| 2026-04-23 23:04 | 29.98728 | -95.35751 | 97 ft | 16 kts | 152° |
| 2026-04-23 23:04 | 29.98382 | -95.35538 | 97 ft | 92 kts | 152° |
| 2026-04-23 23:05 | 29.97626 | -95.35072 | 99 ft | 151 kts | 148° |
| 2026-04-23 23:05 | 29.96625 | -95.34471 | 447 ft | 169 kts | 151° |
| 2026-04-23 23:05 | 29.95606 | -95.33797 | 1188 ft | 170 kts | 139° |
| 2026-04-23 23:05 | 29.94844 | -95.32752 | 1859 ft | 178 kts | 128° |
| 2026-04-23 23:06 | 29.94106 | -95.31609 | 2462 ft | 185 kts | 130° |
| 2026-04-23 23:06 | 29.93278 | -95.30394 | 2881 ft | 202 kts | 130° |
| 2026-04-23 23:06 | 29.92371 | -95.29073 | 3274 ft | 221 kts | 130° |
| 2026-04-23 23:06 | 29.91368 | -95.27615 | 3695 ft | 242 kts | 130° |
| 2026-04-23 23:07 | 29.90273 | -95.26019 | 3958 ft | 257 kts | 130° |
| 2026-04-23 23:07 | 29.89171 | -95.24407 | 3982 ft | 259 kts | 130° |
| 2026-04-23 23:07 | 29.88085 | -95.22714 | 4043 ft | 264 kts | 127° |
| 2026-04-23 23:07 | 29.87000 | -95.20971 | 4554 ft | 267 kts | 127° |
| 2026-04-23 23:08 | 29.85918 | -95.19224 | 4900 ft | 266 kts | 128° |
| 2026-04-23 23:08 | 29.84847 | -95.17503 | 4984 ft | 267 kts | 128° |
| 2026-04-23 23:08 | 29.83756 | -95.15752 | 4987 ft | 267 kts | 127° |
| 2026-04-23 23:08 | 29.82624 | -95.14056 | 4987 ft | 266 kts | 134° |
| 2026-04-23 23:09 | 29.81285 | -95.12571 | 5050 ft | 269 kts | 142° |
| 2026-04-23 23:09 | 29.79792 | -95.11230 | 5702 ft | 276 kts | 144° |
| 2026-04-23 23:09 | 29.78293 | -95.09915 | 6730 ft | 276 kts | 144° |
| 2026-04-23 23:09 | 29.76749 | -95.08569 | 7589 ft | 281 kts | 144° |
| 2026-04-23 23:10 | 29.75101 | -95.07320 | 8360 ft | 288 kts | 152° |
| 2026-04-23 23:10 | 29.73282 | -95.06335 | 9136 ft | 294 kts | 160° |
| 2026-04-23 23:10 | 29.71345 | -95.05490 | 9888 ft | 300 kts | 161° |
| 2026-04-23 23:10 | 29.69352 | -95.04660 | 10577 ft | 310 kts | 162° |
| 2026-04-23 23:11 | 29.67272 | -95.03795 | 11103 ft | 324 kts | 162° |
| 2026-04-23 23:11 | 29.65142 | -95.02902 | 11822 ft | 331 kts | 162° |
| 2026-04-23 23:11 | 29.62956 | -95.01980 | 12610 ft | 336 kts | 162° |
| 2026-04-23 23:11 | 29.60737 | -95.01042 | 13380 ft | 341 kts | 162° |
| 2026-04-23 23:12 | 29.58488 | -95.00092 | 14139 ft | 346 kts | 162° |
| 2026-04-23 23:12 | 29.56213 | -94.99131 | 14904 ft | 350 kts | 162° |
| 2026-04-23 23:12 | 29.53908 | -94.98158 | 15625 ft | 355 kts | 162° |
| 2026-04-23 23:12 | 29.51574 | -94.97173 | 16338 ft | 359 kts | 162° |
| 2026-04-23 23:13 | 29.49213 | -94.96175 | 17051 ft | 363 kts | 162° |
| 2026-04-23 23:13 | 29.46839 | -94.95173 | 17734 ft | 367 kts | 162° |
| 2026-04-23 23:13 | 29.44445 | -94.94163 | 18403 ft | 371 kts | 162° |
| 2026-04-23 23:13 | 29.42009 | -94.93137 | 19073 ft | 376 kts | 162° |
| 2026-04-23 23:14 | 29.39540 | -94.92097 | 19732 ft | 380 kts | 162° |
| 2026-04-23 23:14 | 29.37042 | -94.91044 | 20375 ft | 384 kts | 162° |
| 2026-04-23 23:14 | 29.34523 | -94.89983 | 21018 ft | 388 kts | 162° |
| 2026-04-23 23:14 | 29.31988 | -94.88915 | 21621 ft | 392 kts | 163° |
| 2026-04-23 23:15 | 29.29393 | -94.87814 | 22227 ft | 397 kts | 161° |
| 2026-04-23 23:15 | 29.26861 | -94.86569 | 22800 ft | 402 kts | 157° |
| 2026-04-23 23:15 | 29.24340 | -94.85072 | 23383 ft | 408 kts | 153° |
| 2026-04-23 23:15 | 29.21878 | -94.83421 | 23948 ft | 413 kts | 152° |
| 2026-04-23 23:16 | 29.19396 | -94.81725 | 24470 ft | 418 kts | 152° |
| 2026-04-23 23:16 | 29.16910 | -94.80025 | 24955 ft | 423 kts | 152° |
| 2026-04-23 23:16 | 29.14365 | -94.78285 | 25427 ft | 428 kts | 152° |
| 2026-04-23 23:16 | 29.11781 | -94.76530 | 25899 ft | 433 kts | 152° |
| 2026-04-23 23:17 | 29.09173 | -94.74757 | 26365 ft | 438 kts | 152° |
| 2026-04-23 23:17 | 29.06561 | -94.72986 | 26811 ft | 442 kts | 152° |
| 2026-04-23 23:17 | 29.03885 | -94.71174 | 27253 ft | 447 kts | 152° |
| 2026-04-23 23:17 | 29.01184 | -94.69346 | 27689 ft | 451 kts | 152° |
| 2026-04-23 23:18 | 28.98505 | -94.67535 | 28115 ft | 455 kts | 152° |
| 2026-04-23 23:18 | 28.95752 | -94.65674 | 28539 ft | 459 kts | 153° |
| 2026-04-23 23:18 | 28.93014 | -94.63825 | 28945 ft | 463 kts | 153° |
| 2026-04-23 23:18 | 28.90223 | -94.61941 | 29344 ft | 467 kts | 152° |
| 2026-04-23 23:19 | 28.87383 | -94.60029 | 29709 ft | 472 kts | 152° |
| 2026-04-23 23:19 | 28.84558 | -94.58124 | 30069 ft | 476 kts | 152° |
| 2026-04-23 23:19 | 28.81697 | -94.56200 | 30449 ft | 479 kts | 152° |
| 2026-04-23 23:19 | 28.78826 | -94.54266 | 30809 ft | 483 kts | 152° |
| 2026-04-23 23:20 | 28.75879 | -94.52284 | 31158 ft | 486 kts | 152° |
| 2026-04-23 23:20 | 28.72986 | -94.50337 | 31480 ft | 490 kts | 152° |
| 2026-04-23 23:20 | 28.70006 | -94.48336 | 31824 ft | 493 kts | 152° |
| 2026-04-23 23:20 | 28.67035 | -94.46341 | 32146 ft | 496 kts | 152° |
| 2026-04-23 23:21 | 28.64071 | -94.44350 | 32439 ft | 499 kts | 152° |
| 2026-04-23 23:21 | 28.61041 | -94.42320 | 32726 ft | 503 kts | 151° |
| 2026-04-23 23:21 | 28.58043 | -94.40309 | 33084 ft | 504 kts | 151° |
| 2026-04-23 23:21 | 28.55020 | -94.38284 | 33511 ft | 503 kts | 151° |
| 2026-04-23 23:22 | 28.52040 | -94.36286 | 33943 ft | 502 kts | 151° |
| 2026-04-23 23:22 | 28.49027 | -94.34265 | 34345 ft | 502 kts | 152° |
| 2026-04-23 23:22 | 28.46017 | -94.32252 | 34714 ft | 502 kts | 152° |
| 2026-04-23 23:22 | 28.43000 | -94.30238 | 35043 ft | 503 kts | 152° |
| 2026-04-23 23:23 | 28.39989 | -94.28228 | 35378 ft | 503 kts | 152° |
| 2026-04-23 23:23 | 28.36981 | -94.26221 | 35697 ft | 503 kts | 152° |
| 2026-04-23 23:23 | 28.33943 | -94.24193 | 35971 ft | 504 kts | 152° |
| 2026-04-23 23:23 | 28.30929 | -94.22179 | 36277 ft | 504 kts | 152° |
| 2026-04-23 23:24 | 28.27873 | -94.20145 | 36601 ft | 503 kts | 152° |
| 2026-04-23 23:24 | 28.24844 | -94.18132 | 36867 ft | 504 kts | 152° |
| 2026-04-23 23:24 | 28.21804 | -94.16208 | 37128 ft | 503 kts | 156° |
| 2026-04-23 23:24 | 28.18652 | -94.14505 | 37357 ft | 502 kts | 161° |
| 2026-04-23 23:25 | 28.15365 | -94.13045 | 37607 ft | 499 kts | 166° |
| 2026-04-23 23:25 | 28.12042 | -94.11874 | 37842 ft | 497 kts | 170° |
| 2026-04-23 23:25 | 28.08702 | -94.10984 | 38047 ft | 494 kts | 174° |
| 2026-04-23 23:25 | 28.05295 | -94.10237 | 38220 ft | 496 kts | 176° |
| 2026-04-23 23:26 | 28.01908 | -94.09517 | 38374 ft | 497 kts | 175° |
| 2026-04-23 23:26 | 27.98479 | -94.08781 | 38532 ft | 499 kts | 175° |
| 2026-04-23 23:26 | 27.95066 | -94.08036 | 38727 ft | 500 kts | 175° |
| 2026-04-23 23:26 | 27.91657 | -94.07286 | 38883 ft | 501 kts | 175° |
| 2026-04-23 23:27 | 27.88207 | -94.06523 | 38881 ft | 500 kts | 175° |
| 2026-04-23 23:27 | 27.81346 | -94.05001 | 38887 ft | 501 kts | 175° |
| 2026-04-23 23:28 | 27.74485 | -94.03479 | 38889 ft | 502 kts | 175° |
| 2026-04-23 23:28 | 27.67603 | -94.01953 | 38891 ft | 502 kts | 174° |
| 2026-04-23 23:29 | 27.60677 | -94.00416 | 38900 ft | 501 kts | 175° |
| 2026-04-23 23:29 | 27.53807 | -93.98900 | 38905 ft | 502 kts | 175° |
| 2026-04-23 23:30 | 27.46935 | -93.97381 | 38908 ft | 502 kts | 174° |
| 2026-04-23 23:30 | 27.40104 | -93.95873 | 38901 ft | 501 kts | 174° |
| 2026-04-23 23:31 | 27.33225 | -93.94358 | 38909 ft | 502 kts | 175° |
| 2026-04-23 23:31 | 27.26341 | -93.92844 | 38904 ft | 503 kts | 174° |
| 2026-04-23 23:32 | 27.19419 | -93.91319 | 38898 ft | 502 kts | 174° |
| 2026-04-23 23:32 | 27.12580 | -93.89815 | 38894 ft | 502 kts | 175° |
| 2026-04-23 23:33 | 27.05715 | -93.88313 | 38887 ft | 502 kts | 174° |
| 2026-04-23 23:33 | 26.98812 | -93.86809 | 38883 ft | 503 kts | 174° |
| 2026-04-23 23:34 | 26.91946 | -93.85309 | 38884 ft | 503 kts | 174° |
| 2026-04-23 23:34 | 26.85074 | -93.83807 | 38884 ft | 503 kts | 174° |
| 2026-04-23 23:35 | 26.78182 | -93.82301 | 38891 ft | 503 kts | 174° |
| 2026-04-23 23:35 | 26.71330 | -93.80808 | 38887 ft | 503 kts | 174° |
| 2026-04-23 23:36 | 26.64423 | -93.79305 | 38884 ft | 504 kts | 174° |
| 2026-04-23 23:36 | 26.57575 | -93.77561 | 38886 ft | 508 kts | 167° |
| 2026-04-23 23:37 | 26.50887 | -93.74799 | 38890 ft | 512 kts | 158° |
| 2026-04-23 23:37 | 26.44608 | -93.71117 | 38885 ft | 514 kts | 152° |
| 2026-04-23 23:38 | 26.38383 | -93.67213 | 38886 ft | 514 kts | 152° |
| 2026-04-23 23:38 | 26.32095 | -93.63316 | 38888 ft | 514 kts | 153° |
| 2026-04-23 23:39 | 26.25860 | -93.59484 | 38886 ft | 513 kts | 152° |
| 2026-04-23 23:39 | 26.19590 | -93.55637 | 38890 ft | 514 kts | 153° |
| 2026-04-23 23:40 | 26.13312 | -93.51792 | 38888 ft | 514 kts | 152° |
| 2026-04-23 23:40 | 26.07047 | -93.47963 | 38886 ft | 514 kts | 152° |
| 2026-04-23 23:41 | 26.00805 | -93.44149 | 38884 ft | 513 kts | 152° |
| 2026-04-23 23:41 | 25.94541 | -93.40322 | 38887 ft | 513 kts | 152° |
| 2026-04-23 23:42 | 25.88289 | -93.36516 | 38883 ft | 513 kts | 152° |
| 2026-04-23 23:42 | 25.82029 | -93.32703 | 38883 ft | 513 kts | 152° |
| 2026-04-23 23:43 | 25.75752 | -93.28887 | 38882 ft | 514 kts | 153° |
| 2026-04-23 23:43 | 25.69510 | -93.25101 | 38879 ft | 513 kts | 153° |
| 2026-04-23 23:44 | 25.63224 | -93.21291 | 38884 ft | 513 kts | 153° |
| 2026-04-23 23:44 | 25.56962 | -93.17497 | 38884 ft | 514 kts | 153° |
| 2026-04-23 23:45 | 25.50695 | -93.13706 | 38885 ft | 514 kts | 152° |
| 2026-04-23 23:45 | 25.44408 | -93.09907 | 38885 ft | 514 kts | 152° |
| 2026-04-23 23:46 | 25.38127 | -93.06113 | 38887 ft | 514 kts | 152° |
| 2026-04-23 23:46 | 25.31846 | -93.02330 | 38887 ft | 514 kts | 152° |
| 2026-04-23 23:47 | 25.25584 | -92.98560 | 38889 ft | 514 kts | 152° |
| 2026-04-23 23:47 | 25.19289 | -92.94778 | 38891 ft | 515 kts | 152° |
| 2026-04-23 23:48 | 25.12966 | -92.90974 | 38901 ft | 514 kts | 152° |
| 2026-04-23 23:48 | 25.06671 | -92.87195 | 38907 ft | 515 kts | 152° |
| 2026-04-23 23:49 | 24.97216 | -92.81540 | 38905 ft | 515 kts | 152° |
| 2026-04-23 23:49 | 24.90893 | -92.77758 | 38905 ft | 514 kts | 152° |
| 2026-04-23 23:50 | 24.84588 | -92.73985 | 38903 ft | 514 kts | 152° |
| 2026-04-23 23:50 | 24.78308 | -92.70238 | 38896 ft | 513 kts | 152° |
| 2026-04-23 23:51 | 24.71997 | -92.66475 | 38890 ft | 513 kts | 151° |
| 2026-04-23 23:51 | 24.65754 | -92.62752 | 38891 ft | 513 kts | 151° |
| 2026-04-23 23:52 | 24.59472 | -92.59012 | 38892 ft | 513 kts | 152° |
| 2026-04-23 23:52 | 24.53170 | -92.55273 | 38896 ft | 512 kts | 153° |
| 2026-04-23 23:53 | 24.46613 | -92.52147 | 38896 ft | 510 kts | 162° |
| 2026-04-23 23:53 | 24.39849 | -92.49751 | 38890 ft | 510 kts | 164° |
| 2026-04-23 23:54 | 24.33087 | -92.47421 | 38890 ft | 510 kts | 164° |
| 2026-04-23 23:54 | 24.26285 | -92.45055 | 38887 ft | 510 kts | 164° |
| 2026-04-23 23:55 | 24.19508 | -92.42679 | 38886 ft | 510 kts | 164° |
| 2026-04-23 23:55 | 24.12784 | -92.40321 | 38888 ft | 510 kts | 164° |
| 2026-04-23 23:56 | 24.06002 | -92.37953 | 38885 ft | 511 kts | 164° |
| 2026-04-23 23:56 | 23.99229 | -92.35583 | 38885 ft | 509 kts | 163° |
| 2026-04-23 23:57 | 23.92531 | -92.33243 | 38884 ft | 508 kts | 164° |
| 2026-04-23 23:57 | 23.85758 | -92.30885 | 38880 ft | 507 kts | 163° |
| 2026-04-23 23:58 | 23.79030 | -92.28535 | 38878 ft | 507 kts | 164° |
| 2026-04-23 23:58 | 23.72337 | -92.26207 | 38880 ft | 506 kts | 164° |
| 2026-04-23 23:59 | 23.65615 | -92.23869 | 38879 ft | 505 kts | 163° |
| 2026-04-23 23:59 | 23.58901 | -92.21535 | 38881 ft | 506 kts | 163° |
| 2026-04-24 00:00 | 23.52184 | -92.19211 | 38884 ft | 506 kts | 163° |
| 2026-04-24 00:00 | 23.45457 | -92.16876 | 38881 ft | 505 kts | 164° |
| 2026-04-24 00:01 | 23.38763 | -92.14560 | 38882 ft | 503 kts | 163° |
| 2026-04-24 00:01 | 23.32087 | -92.12248 | 38881 ft | 503 kts | 163° |
| 2026-04-24 00:02 | 23.25445 | -92.09958 | 38884 ft | 502 kts | 163° |
| 2026-04-24 00:02 | 23.18777 | -92.07652 | 38887 ft | 501 kts | 163° |
| 2026-04-24 00:03 | 23.12111 | -92.05356 | 38886 ft | 500 kts | 163° |
| 2026-04-24 00:03 | 23.05504 | -92.03078 | 38888 ft | 498 kts | 163° |
| 2026-04-24 00:04 | 22.98885 | -92.00803 | 38888 ft | 497 kts | 163° |
| 2026-04-24 00:04 | 22.92269 | -91.98530 | 38888 ft | 496 kts | 163° |
| 2026-04-24 00:05 | 22.85698 | -91.96272 | 38886 ft | 495 kts | 164° |
| 2026-04-24 00:05 | 22.79142 | -91.94025 | 38887 ft | 494 kts | 163° |
| 2026-04-24 00:06 | 22.72588 | -91.91778 | 38886 ft | 494 kts | 163° |
| 2026-04-24 00:06 | 22.66014 | -91.89529 | 38885 ft | 493 kts | 164° |
| 2026-04-24 00:07 | 22.59461 | -91.87289 | 38882 ft | 493 kts | 163° |
| 2026-04-24 00:07 | 22.52922 | -91.85056 | 38874 ft | 492 kts | 164° |
| 2026-04-24 00:08 | 22.46391 | -91.82825 | 38865 ft | 491 kts | 164° |
| 2026-04-24 00:08 | 22.39853 | -91.80597 | 38865 ft | 491 kts | 164° |
| 2026-04-24 00:09 | 22.33319 | -91.78375 | 38862 ft | 489 kts | 164° |
| 2026-04-24 00:09 | 22.26842 | -91.76171 | 38866 ft | 488 kts | 164° |
| 2026-04-24 00:10 | 22.20373 | -91.73971 | 38863 ft | 488 kts | 164° |
| 2026-04-24 00:10 | 22.13876 | -91.71764 | 38864 ft | 487 kts | 164° |
| 2026-04-24 00:11 | 22.07401 | -91.69565 | 38862 ft | 486 kts | 165° |
| 2026-04-24 00:11 | 22.00969 | -91.67387 | 38866 ft | 486 kts | 165° |
| 2026-04-24 00:12 | 21.94528 | -91.65205 | 38849 ft | 484 kts | 165° |
| 2026-04-24 00:12 | 21.88097 | -91.63031 | 38860 ft | 483 kts | 165° |
| 2026-04-24 00:13 | 21.81690 | -91.60866 | 38860 ft | 484 kts | 165° |
| 2026-04-24 00:13 | 21.75240 | -91.58688 | 38861 ft | 482 kts | 165° |
| 2026-04-24 00:14 | 21.68829 | -91.56525 | 38864 ft | 481 kts | 165° |
| 2026-04-24 00:14 | 21.62479 | -91.54384 | 38863 ft | 481 kts | 165° |
| 2026-04-24 00:15 | 21.56061 | -91.52222 | 38862 ft | 479 kts | 165° |
| 2026-04-24 00:15 | 21.49733 | -91.50093 | 38858 ft | 479 kts | 165° |
| 2026-04-24 00:16 | 21.43327 | -91.47940 | 38867 ft | 478 kts | 165° |
| 2026-04-24 00:16 | 21.36971 | -91.45805 | 38865 ft | 478 kts | 165° |
| 2026-04-24 00:17 | 21.30594 | -91.43666 | 38866 ft | 478 kts | 165° |
| 2026-04-24 00:17 | 21.24260 | -91.41541 | 38862 ft | 477 kts | 165° |
| 2026-04-24 00:18 | 21.17927 | -91.39422 | 38862 ft | 475 kts | 165° |
| 2026-04-24 00:18 | 21.11589 | -91.37301 | 38863 ft | 475 kts | 165° |
| 2026-04-24 00:19 | 21.05278 | -91.35190 | 38865 ft | 474 kts | 165° |
| 2026-04-24 00:19 | 20.98937 | -91.33068 | 38862 ft | 472 kts | 166° |
| 2026-04-24 00:20 | 20.92640 | -91.30964 | 38864 ft | 472 kts | 166° |
| 2026-04-24 00:20 | 20.86367 | -91.28867 | 38864 ft | 469 kts | 166° |
| 2026-04-24 00:21 | 20.80137 | -91.26762 | 38858 ft | 470 kts | 164° |
| 2026-04-24 00:21 | 20.74001 | -91.24376 | 38864 ft | 470 kts | 163° |
| 2026-04-24 00:22 | 20.67846 | -91.21945 | 38858 ft | 469 kts | 163° |
| 2026-04-24 00:22 | 20.61750 | -91.19542 | 38851 ft | 467 kts | 163° |
| 2026-04-24 00:23 | 20.55624 | -91.17130 | 38846 ft | 466 kts | 163° |
| 2026-04-24 00:23 | 20.49574 | -91.14753 | 38846 ft | 465 kts | 163° |
| 2026-04-24 00:24 | 20.43518 | -91.12373 | 38848 ft | 464 kts | 163° |
| 2026-04-24 00:24 | 20.37457 | -91.09994 | 38842 ft | 463 kts | 164° |
| 2026-04-24 00:25 | 20.31401 | -91.07619 | 38843 ft | 463 kts | 164° |
| 2026-04-24 00:25 | 20.25345 | -91.05248 | 38843 ft | 462 kts | 164° |
| 2026-04-24 00:26 | 20.19367 | -91.02908 | 38830 ft | 459 kts | 164° |
| 2026-04-24 00:26 | 20.13348 | -91.00552 | 38834 ft | 458 kts | 165° |
| 2026-04-24 00:27 | 20.07374 | -90.98219 | 38832 ft | 458 kts | 165° |
| 2026-04-24 00:27 | 20.01359 | -90.95874 | 38829 ft | 458 kts | 164° |
| 2026-04-24 00:28 | 19.95420 | -90.93555 | 38826 ft | 456 kts | 165° |
| 2026-04-24 00:28 | 19.89438 | -90.91224 | 38825 ft | 456 kts | 165° |
| 2026-04-24 00:29 | 19.83485 | -90.88902 | 38822 ft | 456 kts | 165° |
| 2026-04-24 00:29 | 19.77529 | -90.86587 | 38821 ft | 456 kts | 165° |
| 2026-04-24 00:30 | 19.71581 | -90.84271 | 38818 ft | 457 kts | 165° |
| 2026-04-24 00:30 | 19.65612 | -90.81953 | 38821 ft | 456 kts | 165° |
| 2026-04-24 00:31 | 19.59615 | -90.79623 | 38818 ft | 456 kts | 165° |
| 2026-04-24 00:31 | 19.53675 | -90.77321 | 38817 ft | 457 kts | 165° |
| 2026-04-24 00:32 | 19.47690 | -90.74998 | 38816 ft | 456 kts | 165° |
| 2026-04-24 00:32 | 19.41696 | -90.72679 | 38814 ft | 456 kts | 165° |
| 2026-04-24 00:33 | 19.35761 | -90.70382 | 38818 ft | 456 kts | 165° |
| 2026-04-24 00:33 | 19.29792 | -90.68071 | 38816 ft | 455 kts | 165° |
| 2026-04-24 00:34 | 19.23822 | -90.65765 | 38814 ft | 455 kts | 165° |
| 2026-04-24 00:34 | 19.17856 | -90.63460 | 38815 ft | 456 kts | 165° |
| 2026-04-24 00:35 | 19.11886 | -90.61157 | 38822 ft | 455 kts | 165° |
| 2026-04-24 00:35 | 19.05911 | -90.58852 | 38822 ft | 455 kts | 166° |
| 2026-04-24 00:36 | 18.99952 | -90.56556 | 38820 ft | 454 kts | 165° |
| 2026-04-24 00:36 | 18.93954 | -90.54248 | 38822 ft | 453 kts | 166° |
| 2026-04-24 00:37 | 18.88034 | -90.51971 | 38823 ft | 453 kts | 166° |
| 2026-04-24 00:37 | 18.82032 | -90.49666 | 38827 ft | 454 kts | 166° |
| 2026-04-24 00:38 | 18.76052 | -90.47369 | 38830 ft | 455 kts | 165° |
| 2026-04-24 00:38 | 18.70091 | -90.45080 | 38829 ft | 454 kts | 165° |
| 2026-04-24 00:39 | 18.64176 | -90.42808 | 38827 ft | 453 kts | 166° |
| 2026-04-24 00:39 | 18.58244 | -90.40535 | 38824 ft | 452 kts | 166° |
| 2026-04-24 00:40 | 18.52290 | -90.38256 | 38825 ft | 452 kts | 166° |
| 2026-04-24 00:40 | 18.46340 | -90.35979 | 38822 ft | 453 kts | 166° |
| 2026-04-24 00:41 | 18.40370 | -90.33695 | 38809 ft | 453 kts | 166° |
| 2026-04-24 00:41 | 18.34415 | -90.31417 | 38808 ft | 452 kts | 167° |
| 2026-04-24 00:42 | 18.28492 | -90.29157 | 38812 ft | 452 kts | 166° |
| 2026-04-24 00:42 | 18.22620 | -90.26915 | 38811 ft | 450 kts | 167° |
| 2026-04-24 00:43 | 18.16702 | -90.24660 | 38816 ft | 451 kts | 166° |
| 2026-04-24 00:43 | 18.10775 | -90.22399 | 38824 ft | 450 kts | 167° |
| 2026-04-24 00:44 | 18.04854 | -90.20145 | 38832 ft | 450 kts | 167° |
| 2026-04-24 00:44 | 17.98936 | -90.17889 | 38827 ft | 449 kts | 166° |
| 2026-04-24 00:45 | 17.93063 | -90.15654 | 38834 ft | 449 kts | 167° |
| 2026-04-24 00:45 | 17.87156 | -90.13405 | 38835 ft | 448 kts | 167° |
| 2026-04-24 00:46 | 17.81226 | -90.11202 | 38838 ft | 445 kts | 169° |
| 2026-04-24 00:46 | 17.75233 | -90.09375 | 38840 ft | 446 kts | 171° |
| 2026-04-24 00:47 | 17.69259 | -90.07583 | 38845 ft | 444 kts | 171° |
| 2026-04-24 00:47 | 17.63283 | -90.05786 | 38857 ft | 444 kts | 171° |
| 2026-04-24 00:48 | 17.57321 | -90.03993 | 38864 ft | 443 kts | 171° |
| 2026-04-24 00:48 | 17.51334 | -90.02191 | 38871 ft | 443 kts | 171° |
| 2026-04-24 00:49 | 17.45376 | -90.00401 | 38869 ft | 442 kts | 171° |
| 2026-04-24 00:49 | 17.39438 | -89.98617 | 38867 ft | 441 kts | 171° |
| 2026-04-24 00:50 | 17.33490 | -89.96831 | 38865 ft | 442 kts | 171° |
| 2026-04-24 00:50 | 17.27562 | -89.95050 | 38862 ft | 442 kts | 171° |
| 2026-04-24 00:51 | 17.21654 | -89.93277 | 38858 ft | 441 kts | 171° |
| 2026-04-24 00:51 | 17.15759 | -89.91508 | 38856 ft | 440 kts | 171° |
| 2026-04-24 00:52 | 17.09841 | -89.89735 | 38850 ft | 441 kts | 171° |
| 2026-04-24 00:52 | 17.03945 | -89.87970 | 38846 ft | 440 kts | 171° |
| 2026-04-24 00:53 | 16.98029 | -89.86201 | 38839 ft | 440 kts | 171° |
| 2026-04-24 00:53 | 16.92134 | -89.84438 | 38847 ft | 441 kts | 171° |
| 2026-04-24 00:54 | 16.86212 | -89.82671 | 38859 ft | 441 kts | 171° |
| 2026-04-24 00:54 | 16.80316 | -89.80908 | 38864 ft | 440 kts | 171° |
| 2026-04-24 00:55 | 16.74362 | -89.79133 | 38867 ft | 440 kts | 170° |
| 2026-04-24 00:55 | 16.68446 | -89.77367 | 38868 ft | 440 kts | 170° |
| 2026-04-24 00:56 | 16.62505 | -89.75598 | 38870 ft | 440 kts | 170° |
| 2026-04-24 00:56 | 16.56593 | -89.73836 | 38876 ft | 440 kts | 170° |
| 2026-04-24 00:57 | 16.50640 | -89.72064 | 38883 ft | 441 kts | 170° |
| 2026-04-24 00:58 | 16.41758 | -89.69421 | 38895 ft | 439 kts | 170° |
| 2026-04-24 00:58 | 16.35824 | -89.67657 | 38897 ft | 439 kts | 170° |
| 2026-04-24 00:59 | 16.29923 | -89.65906 | 38793 ft | 441 kts | 170° |
| 2026-04-24 00:59 | 16.26961 | -89.65028 | 38492 ft | 439 kts | 170° |
| 2026-04-24 00:59 | 16.24016 | -89.64153 | 38197 ft | 435 kts | 170° |
| 2026-04-24 00:59 | 16.21108 | -89.63289 | 37902 ft | 432 kts | 170° |
| 2026-04-24 01:00 | 16.18220 | -89.62432 | 37611 ft | 431 kts | 170° |
| 2026-04-24 01:00 | 16.15346 | -89.61580 | 37321 ft | 431 kts | 170° |
| 2026-04-24 01:00 | 16.12473 | -89.60729 | 37030 ft | 431 kts | 169° |
| 2026-04-24 01:00 | 16.09545 | -89.59862 | 36735 ft | 431 kts | 169° |
| 2026-04-24 01:01 | 16.06670 | -89.59012 | 36445 ft | 432 kts | 169° |
| 2026-04-24 01:01 | 16.03773 | -89.58154 | 36154 ft | 432 kts | 169° |
| 2026-04-24 01:01 | 16.00888 | -89.57301 | 35865 ft | 432 kts | 169° |
| 2026-04-24 01:01 | 15.97986 | -89.56441 | 35573 ft | 433 kts | 169° |
| 2026-04-24 01:02 | 15.95092 | -89.55585 | 35282 ft | 433 kts | 169° |
| 2026-04-24 01:02 | 15.92166 | -89.54720 | 34990 ft | 434 kts | 169° |
| 2026-04-24 01:02 | 15.89244 | -89.53856 | 34705 ft | 435 kts | 169° |
| 2026-04-24 01:02 | 15.86333 | -89.52995 | 34414 ft | 436 kts | 169° |
| 2026-04-24 01:03 | 15.83419 | -89.52135 | 34125 ft | 436 kts | 169° |
| 2026-04-24 01:03 | 15.80491 | -89.51270 | 33838 ft | 438 kts | 168° |
| 2026-04-24 01:03 | 15.77534 | -89.50396 | 33548 ft | 438 kts | 169° |
| 2026-04-24 01:03 | 15.74617 | -89.49535 | 33265 ft | 439 kts | 168° |
| 2026-04-24 01:04 | 15.71639 | -89.48655 | 32974 ft | 440 kts | 168° |
| 2026-04-24 01:04 | 15.68699 | -89.47789 | 32715 ft | 441 kts | 168° |
| 2026-04-24 01:04 | 15.65728 | -89.46914 | 32458 ft | 442 kts | 168° |
| 2026-04-24 01:04 | 15.62760 | -89.46040 | 32204 ft | 443 kts | 168° |
| 2026-04-24 01:05 | 15.59779 | -89.45161 | 31949 ft | 443 kts | 168° |
| 2026-04-24 01:05 | 15.56814 | -89.44286 | 31694 ft | 442 kts | 168° |
| 2026-04-24 01:05 | 15.53858 | -89.43414 | 31437 ft | 440 kts | 168° |
| 2026-04-24 01:05 | 15.50911 | -89.42545 | 31182 ft | 439 kts | 167° |
| 2026-04-24 01:06 | 15.47942 | -89.41672 | 30927 ft | 438 kts | 167° |
| 2026-04-24 01:06 | 15.45028 | -89.40814 | 30675 ft | 438 kts | 167° |
| 2026-04-24 01:06 | 15.42107 | -89.39954 | 30423 ft | 436 kts | 167° |
| 2026-04-24 01:06 | 15.39150 | -89.39084 | 30166 ft | 435 kts | 167° |
| 2026-04-24 01:07 | 15.36232 | -89.38226 | 29913 ft | 435 kts | 167° |
| 2026-04-24 01:07 | 15.33315 | -89.37367 | 29661 ft | 434 kts | 167° |
| 2026-04-24 01:07 | 15.30403 | -89.36511 | 29410 ft | 434 kts | 166° |
| 2026-04-24 01:07 | 15.27523 | -89.35665 | 29161 ft | 432 kts | 166° |
| 2026-04-24 01:08 | 15.24602 | -89.34807 | 28907 ft | 431 kts | 166° |
| 2026-04-24 01:08 | 15.21692 | -89.33951 | 28649 ft | 431 kts | 166° |
| 2026-04-24 01:08 | 15.18802 | -89.33101 | 28396 ft | 429 kts | 167° |
| 2026-04-24 01:08 | 15.15908 | -89.32251 | 28142 ft | 427 kts | 167° |
| 2026-04-24 01:09 | 15.13057 | -89.31414 | 27889 ft | 425 kts | 166° |
| 2026-04-24 01:09 | 15.10184 | -89.30571 | 27632 ft | 423 kts | 166° |
| 2026-04-24 01:09 | 15.07340 | -89.29738 | 27377 ft | 422 kts | 166° |
| 2026-04-24 01:09 | 15.04524 | -89.28912 | 27128 ft | 421 kts | 166° |
| 2026-04-24 01:10 | 15.01689 | -89.28081 | 26872 ft | 419 kts | 166° |
| 2026-04-24 01:10 | 14.98879 | -89.27257 | 26617 ft | 418 kts | 166° |
| 2026-04-24 01:10 | 14.96114 | -89.26447 | 26370 ft | 416 kts | 166° |
| 2026-04-24 01:10 | 14.93329 | -89.25631 | 26118 ft | 414 kts | 166° |
| 2026-04-24 01:11 | 14.90555 | -89.24818 | 25864 ft | 412 kts | 166° |
| 2026-04-24 01:11 | 14.87769 | -89.24002 | 25605 ft | 410 kts | 166° |
| 2026-04-24 01:11 | 14.85033 | -89.23200 | 25352 ft | 409 kts | 166° |
| 2026-04-24 01:11 | 14.82285 | -89.22396 | 25098 ft | 407 kts | 166° |
| 2026-04-24 01:12 | 14.79548 | -89.21596 | 24849 ft | 405 kts | 166° |
| 2026-04-24 01:12 | 14.76856 | -89.20808 | 24598 ft | 404 kts | 166° |
| 2026-04-24 01:12 | 14.74136 | -89.20013 | 24346 ft | 403 kts | 166° |
| 2026-04-24 01:12 | 14.71415 | -89.19218 | 24094 ft | 401 kts | 166° |
| 2026-04-24 01:13 | 14.68743 | -89.18438 | 23844 ft | 400 kts | 166° |
| 2026-04-24 01:13 | 14.66043 | -89.17649 | 23589 ft | 399 kts | 166° |
| 2026-04-24 01:13 | 14.63376 | -89.16870 | 23342 ft | 397 kts | 166° |
| 2026-04-24 01:13 | 14.60734 | -89.16099 | 23097 ft | 395 kts | 166° |
| 2026-04-24 01:14 | 14.58090 | -89.15327 | 22849 ft | 393 kts | 166° |
| 2026-04-24 01:14 | 14.55453 | -89.14558 | 22602 ft | 392 kts | 166° |
| 2026-04-24 01:14 | 14.52815 | -89.13788 | 22357 ft | 391 kts | 166° |
| 2026-04-24 01:14 | 14.50211 | -89.13028 | 22123 ft | 390 kts | 166° |
| 2026-04-24 01:15 | 14.47610 | -89.12270 | 21886 ft | 388 kts | 165° |
| 2026-04-24 01:15 | 14.44981 | -89.11503 | 21647 ft | 386 kts | 165° |
| 2026-04-24 01:15 | 14.42402 | -89.10750 | 21413 ft | 384 kts | 165° |
| 2026-04-24 01:15 | 14.39840 | -89.10001 | 21176 ft | 383 kts | 165° |
| 2026-04-24 01:16 | 14.37292 | -89.09259 | 20942 ft | 381 kts | 165° |
| 2026-04-24 01:16 | 14.34721 | -89.08508 | 20705 ft | 380 kts | 166° |
| 2026-04-24 01:16 | 14.32193 | -89.07772 | 20471 ft | 378 kts | 165° |
| 2026-04-24 01:16 | 14.29663 | -89.07035 | 20237 ft | 376 kts | 165° |
| 2026-04-24 01:17 | 14.27138 | -89.06301 | 20001 ft | 375 kts | 165° |
| 2026-04-24 01:17 | 14.24637 | -89.05572 | 19766 ft | 373 kts | 165° |
| 2026-04-24 01:17 | 14.22137 | -89.04842 | 19529 ft | 371 kts | 165° |
| 2026-04-24 01:17 | 14.19617 | -89.04108 | 19289 ft | 370 kts | 165° |
| 2026-04-24 01:18 | 14.17155 | -89.03391 | 19043 ft | 369 kts | 165° |
| 2026-04-24 01:18 | 14.14665 | -89.02667 | 18703 ft | 367 kts | 165° |
| 2026-04-24 01:18 | 14.12183 | -89.01949 | 18298 ft | 365 kts | 166° |
| 2026-04-24 01:18 | 14.09687 | -89.01493 | 17858 ft | 362 kts | 176° |
| 2026-04-24 01:19 | 14.07172 | -89.01484 | 17407 ft | 360 kts | 185° |
| 2026-04-24 01:19 | 14.04675 | -89.01717 | 16966 ft | 358 kts | 187° |
| 2026-04-24 01:19 | 14.02201 | -89.01987 | 16521 ft | 357 kts | 187° |
| 2026-04-24 01:19 | 13.99742 | -89.02258 | 16075 ft | 355 kts | 187° |
| 2026-04-24 01:20 | 13.97275 | -89.02524 | 15642 ft | 354 kts | 187° |
| 2026-04-24 01:20 | 13.94800 | -89.02785 | 15198 ft | 352 kts | 187° |
| 2026-04-24 01:20 | 13.92365 | -89.03038 | 14765 ft | 351 kts | 186° |
| 2026-04-24 01:20 | 13.89935 | -89.03288 | 14333 ft | 349 kts | 186° |
| 2026-04-24 01:21 | 13.87492 | -89.03539 | 13899 ft | 347 kts | 186° |
| 2026-04-24 01:21 | 13.85113 | -89.03782 | 13470 ft | 345 kts | 186° |
| 2026-04-24 01:21 | 13.82712 | -89.04026 | 13037 ft | 343 kts | 186° |
| 2026-04-24 01:21 | 13.80315 | -89.04270 | 12607 ft | 341 kts | 186° |
| 2026-04-24 01:22 | 13.77938 | -89.04513 | 12187 ft | 338 kts | 186° |
| 2026-04-24 01:22 | 13.75584 | -89.04753 | 11778 ft | 336 kts | 186° |
| 2026-04-24 01:22 | 13.73277 | -89.04989 | 11349 ft | 334 kts | 186° |
| 2026-04-24 01:22 | 13.70952 | -89.05225 | 10915 ft | 332 kts | 186° |
| 2026-04-24 01:23 | 13.68669 | -89.05457 | 10494 ft | 329 kts | 185° |
| 2026-04-24 01:23 | 13.66397 | -89.05688 | 10153 ft | 323 kts | 185° |
| 2026-04-24 01:23 | 13.64230 | -89.05908 | 9981 ft | 301 kts | 185° |
| 2026-04-24 01:23 | 13.62141 | -89.06120 | 9615 ft | 299 kts | 185° |
| 2026-04-24 01:24 | 13.60052 | -89.06333 | 9238 ft | 297 kts | 185° |
| 2026-04-24 01:24 | 13.57983 | -89.06544 | 8865 ft | 295 kts | 185° |
| 2026-04-24 01:24 | 13.55945 | -89.06752 | 8501 ft | 293 kts | 185° |
| 2026-04-24 01:24 | 13.53886 | -89.06962 | 8135 ft | 291 kts | 185° |
| 2026-04-24 01:25 | 13.51896 | -89.07164 | 7782 ft | 289 kts | 185° |
| 2026-04-24 01:25 | 13.49886 | -89.07368 | 7419 ft | 287 kts | 185° |
| 2026-04-24 01:25 | 13.47890 | -89.07572 | 7063 ft | 285 kts | 185° |
| 2026-04-24 01:25 | 13.45931 | -89.07770 | 6713 ft | 283 kts | 186° |
| 2026-04-24 01:26 | 13.43972 | -89.08040 | 6350 ft | 281 kts | 196° |
| 2026-04-24 01:26 | 13.42233 | -89.08910 | 5997 ft | 278 kts | 218° |
| 2026-04-24 01:26 | 13.40789 | -89.10220 | 5659 ft | 275 kts | 224° |
| 2026-04-24 01:26 | 13.39399 | -89.11574 | 5316 ft | 274 kts | 224° |
| 2026-04-24 01:27 | 13.38019 | -89.12912 | 4979 ft | 272 kts | 224° |
| 2026-04-24 01:27 | 13.36627 | -89.14246 | 4631 ft | 270 kts | 224° |
| 2026-04-24 01:27 | 13.35266 | -89.15540 | 4297 ft | 267 kts | 223° |
| 2026-04-24 01:27 | 13.33906 | -89.16828 | 3963 ft | 266 kts | 223° |
| 2026-04-24 01:28 | 13.32549 | -89.18108 | 3637 ft | 255 kts | 224° |
| 2026-04-24 01:28 | 13.31446 | -89.19431 | 3383 ft | 236 kts | 245° |
| 2026-04-24 01:28 | 13.31064 | -89.20950 | 3334 ft | 212 kts | 270° |
| 2026-04-24 01:28 | 13.31298 | -89.22393 | 3290 ft | 196 kts | 292° |
| 2026-04-24 01:29 | 13.31995 | -89.23570 | 3260 ft | 194 kts | 313° |
| 2026-04-24 01:29 | 13.33071 | -89.24416 | 3225 ft | 195 kts | 334° |
| 2026-04-24 01:29 | 13.34401 | -89.24803 | 3173 ft | 197 kts | 355° |
| 2026-04-24 01:29 | 13.35762 | -89.24661 | 3054 ft | 198 kts | 17° |
| 2026-04-24 01:30 | 13.36984 | -89.24005 | 2936 ft | 199 kts | 39° |
| 2026-04-24 01:30 | 13.37876 | -89.22934 | 2860 ft | 191 kts | 59° |
| 2026-04-24 01:30 | 13.38418 | -89.21696 | 2554 ft | 192 kts | 69° |
| 2026-04-24 01:30 | 13.38844 | -89.20414 | 2290 ft | 189 kts | 71° |
| 2026-04-24 01:31 | 13.39259 | -89.19144 | 2060 ft | 184 kts | 71° |
| 2026-04-24 01:31 | 13.39674 | -89.17940 | 1885 ft | 169 kts | 71° |
| 2026-04-24 01:31 | 13.40066 | -89.16843 | 1688 ft | 155 kts | 71° |
| 2026-04-24 01:31 | 13.40421 | -89.15855 | 1523 ft | 141 kts | 71° |
| 2026-04-24 01:32 | 13.40760 | -89.14912 | 1378 ft | 140 kts | 71° |
| 2026-04-24 01:32 | 13.41093 | -89.13982 | 1240 ft | 139 kts | 71° |
| 2026-04-24 01:32 | 13.41429 | -89.13042 | 1098 ft | 139 kts | 71° |
| 2026-04-24 01:32 | 13.41761 | -89.12111 | 956 ft | 139 kts | 70° |
| 2026-04-24 01:33 | 13.42089 | -89.11173 | 759 ft | 138 kts | 70° |
| 2026-04-24 01:33 | 13.42201 | -89.10854 | 714 ft | 138 kts | 70° |
| 2026-04-24 01:33 | 13.42281 | -89.10622 | 688 ft | 138 kts | 70° |
| 2026-04-24 01:33 | 13.42616 | -89.09680 | 555 ft | 138 kts | 70° |
| 2026-04-24 01:34 | 13.42944 | -89.08757 | 423 ft | 138 kts | 69° |
| 2026-04-24 01:34 | 13.43284 | -89.07835 | 260 ft | 137 kts | 69° |
| 2026-04-24 01:34 | 13.43611 | -89.06924 | 129 ft | 136 kts | 69° |
| 2026-04-24 01:34 | 13.43920 | -89.06063 | 104 ft | 109 kts | 69° |
| 2026-04-24 01:35 | 13.44122 | -89.05494 | 112 ft | 61 kts | 69° |
| 2026-04-24 01:35 | 13.44231 | -89.05194 | 115 ft | 38 kts | 72° |
| 2026-04-24 01:35 | 13.44315 | -89.04954 | 117 ft | 32 kts | 69° |
| 2026-04-24 01:35 | 13.44383 | -89.04811 | 118 ft | 17 kts | 24° |
| 2026-04-24 01:36 | 13.44495 | -89.04842 | 120 ft | 15 kts | 338° |
| 2026-04-24 01:36 | 13.44515 | -89.04933 | 120 ft | 15 kts | 246° |
| 2026-04-24 01:36 | 13.44473 | -89.05039 | 120 ft | 16 kts | 249° |
| 2026-04-24 01:36 | 13.44434 | -89.05148 | 119 ft | 16 kts | 251° |
| 2026-04-24 01:37 | 13.44395 | -89.05265 | 119 ft | 17 kts | 251° |
| 2026-04-24 01:37 | 13.44372 | -89.05381 | 119 ft | 14 kts | 313° |
| 2026-04-24 01:37 | 13.44411 | -89.05463 | 120 ft | 13 kts | 257° |
| 2026-04-24 01:37 | 13.44376 | -89.05559 | 119 ft | 14 kts | 249° |
| 2026-04-24 01:38 | 13.44338 | -89.05662 | 118 ft | 14 kts | 250° |
| 2026-04-24 01:38 | 13.44306 | -89.05753 | 117 ft | 10 kts | 250° |
| 2026-04-24 01:38 | 13.44306 | -89.05778 | 117 ft | 3 kts | 335° |
| 2026-04-24 01:38 | 13.44331 | -89.05786 | 117 ft | 4 kts | 341° |
| 2026-04-24 01:39 | 13.44361 | -89.05798 | 118 ft | 3 kts | 340° |
| 2026-04-24 01:39 | 13.44375 | -89.05803 | 118 ft | 0 kts | 340° |
| 2026-04-24 01:39 | 13.44379 | -89.05804 | 119 ft | 0 kts | 340° |
| 2026-04-24 01:40 | 13.44375 | -89.05803 | 118 ft | 1 kts | 340° |
| 2026-04-24 01:40 | 13.44359 | -89.05797 | 118 ft | 3 kts | 341° |
| 2026-04-24 01:40 | 13.44343 | -89.05791 | 117 ft | 0 kts | 341° |
| 2026-04-24 01:43 | 13.44363 | -89.05798 | 118 ft | 4 kts | 341° |
| 2026-04-24 01:43 | 13.44378 | -89.05804 | 118 ft | 0 kts | 341° |